sensor_id;sensor_type;location;lat;lon;timestamp;P1;durP1;ratioP1;P2;durP2;ratioP2
22754;SDS011;11544;42.020;23.094;2023-04-25T00:01:02;5.30;;;2.90;;
22754;SDS011;11544;42.020;23.094;2023-04-25T00:03:31;4.60;;;2.90;;
22754;SDS011;11544;42.020;23.094;2023-04-25T00:05:59;3.58;;;2.85;;
22754;SDS011;11544;42.020;23.094;2023-04-25T00:08:29;3.92;;;3.03;;
22754;SDS011;11544;42.020;23.094;2023-04-25T00:10:57;4.65;;;3.47;;
22754;SDS011;11544;42.020;23.094;2023-04-25T00:13:24;3.92;;;2.90;;
22754;SDS011;11544;42.020;23.094;2023-04-25T00:15:52;5.18;;;3.83;;
22754;SDS011;11544;42.020;23.094;2023-04-25T00:18:22;3.70;;;3.08;;
22754;SDS011;11544;42.020;23.094;2023-04-25T00:20:49;3.33;;;2.88;;
22754;SDS011;11544;42.020;23.094;2023-04-25T00:23:17;4.30;;;2.53;;
22754;SDS011;11544;42.020;23.094;2023-04-25T00:25:44;2.63;;;2.22;;
22754;SDS011;11544;42.020;23.094;2023-04-25T00:28:12;2.75;;;2.25;;
22754;SDS011;11544;42.020;23.094;2023-04-25T00:30:39;2.35;;;2.10;;
22754;SDS011;11544;42.020;23.094;2023-04-25T00:33:07;2.92;;;1.95;;
22754;SDS011;11544;42.020;23.094;2023-04-25T00:35:35;2.92;;;2.50;;
22754;SDS011;11544;42.020;23.094;2023-04-25T00:38:02;4.15;;;2.60;;
22754;SDS011;11544;42.020;23.094;2023-04-25T00:40:32;3.25;;;2.60;;
22754;SDS011;11544;42.020;23.094;2023-04-25T00:43:01;2.22;;;1.92;;
22754;SDS011;11544;42.020;23.094;2023-04-25T00:45:30;8.40;;;2.47;;
22754;SDS011;11544;42.020;23.094;2023-04-25T00:47:57;4.18;;;2.30;;
22754;SDS011;11544;42.020;23.094;2023-04-25T00:50:24;4.45;;;2.05;;
22754;SDS011;11544;42.020;23.094;2023-04-25T00:52:51;3.13;;;1.95;;
22754;SDS011;11544;42.020;23.094;2023-04-25T00:55:18;3.67;;;2.03;;
22754;SDS011;11544;42.020;23.094;2023-04-25T00:57:47;3.53;;;1.95;;
22754;SDS011;11544;42.020;23.094;2023-04-25T01:00:16;3.00;;;2.00;;
22754;SDS011;11544;42.020;23.094;2023-04-25T01:02:44;6.70;;;2.22;;
22754;SDS011;11544;42.020;23.094;2023-04-25T01:05:16;2.00;;;1.80;;
22754;SDS011;11544;42.020;23.094;2023-04-25T01:07:45;4.20;;;2.38;;
22754;SDS011;11544;42.020;23.094;2023-04-25T01:10:15;3.55;;;2.22;;
22754;SDS011;11544;42.020;23.094;2023-04-25T01:12:42;2.20;;;2.00;;
22754;SDS011;11544;42.020;23.094;2023-04-25T01:15:09;3.70;;;2.00;;
22754;SDS011;11544;42.020;23.094;2023-04-25T01:17:36;2.58;;;1.83;;
22754;SDS011;11544;42.020;23.094;2023-04-25T01:20:07;2.40;;;2.20;;
22754;SDS011;11544;42.020;23.094;2023-04-25T01:23:36;2.30;;;1.95;;
22754;SDS011;11544;42.020;23.094;2023-04-25T01:26:04;2.85;;;1.90;;
22754;SDS011;11544;42.020;23.094;2023-04-25T01:28:33;4.28;;;2.50;;
22754;SDS011;11544;42.020;23.094;2023-04-25T01:31:01;3.05;;;2.00;;
22754;SDS011;11544;42.020;23.094;2023-04-25T01:33:28;2.80;;;2.00;;
22754;SDS011;11544;42.020;23.094;2023-04-25T01:36:01;2.00;;;1.80;;
22754;SDS011;11544;42.020;23.094;2023-04-25T01:39:33;3.40;;;1.95;;
22754;SDS011;11544;42.020;23.094;2023-04-25T01:42:09;2.95;;;1.73;;
22754;SDS011;11544;42.020;23.094;2023-04-25T01:44:36;2.17;;;1.90;;
22754;SDS011;11544;42.020;23.094;2023-04-25T01:47:04;2.53;;;1.77;;
22754;SDS011;11544;42.020;23.094;2023-04-25T01:49:36;2.53;;;2.00;;
22754;SDS011;11544;42.020;23.094;2023-04-25T01:52:12;2.25;;;1.90;;
22754;SDS011;11544;42.020;23.094;2023-04-25T01:54:40;2.45;;;1.92;;
22754;SDS011;11544;42.020;23.094;2023-04-25T01:57:12;3.70;;;1.80;;
22754;SDS011;11544;42.020;23.094;2023-04-25T01:59:41;2.92;;;1.50;;
22754;SDS011;11544;42.020;23.094;2023-04-25T02:02:09;1.73;;;1.52;;
22754;SDS011;11544;42.020;23.094;2023-04-25T02:04:37;1.50;;;1.40;;
22754;SDS011;11544;42.020;23.094;2023-04-25T02:07:04;1.70;;;1.60;;
22754;SDS011;11544;42.020;23.094;2023-04-25T02:09:31;2.85;;;1.55;;
22754;SDS011;11544;42.020;23.094;2023-04-25T02:12:00;1.98;;;1.60;;
22754;SDS011;11544;42.020;23.094;2023-04-25T02:14:28;1.60;;;1.50;;
22754;SDS011;11544;42.020;23.094;2023-04-25T02:16:55;3.55;;;1.80;;
22754;SDS011;11544;42.020;23.094;2023-04-25T02:19:23;2.33;;;1.73;;
22754;SDS011;11544;42.020;23.094;2023-04-25T02:21:51;2.20;;;1.90;;
22754;SDS011;11544;42.020;23.094;2023-04-25T02:24:18;2.95;;;1.88;;
22754;SDS011;11544;42.020;23.094;2023-04-25T02:26:45;2.65;;;2.00;;
22754;SDS011;11544;42.020;23.094;2023-04-25T02:29:13;3.20;;;2.13;;
22754;SDS011;11544;42.020;23.094;2023-04-25T02:31:42;1.98;;;1.52;;
22754;SDS011;11544;42.020;23.094;2023-04-25T02:34:09;2.90;;;2.00;;
22754;SDS011;11544;42.020;23.094;2023-04-25T02:36:36;1.67;;;1.58;;
22754;SDS011;11544;42.020;23.094;2023-04-25T02:39:02;2.42;;;1.40;;
22754;SDS011;11544;42.020;23.094;2023-04-25T02:41:29;2.28;;;1.90;;
22754;SDS011;11544;42.020;23.094;2023-04-25T02:43:56;3.33;;;1.90;;
22754;SDS011;11544;42.020;23.094;2023-04-25T02:46:23;2.97;;;2.28;;
22754;SDS011;11544;42.020;23.094;2023-04-25T02:49:04;4.95;;;2.20;;
22754;SDS011;11544;42.020;23.094;2023-04-25T02:51:31;3.25;;;2.17;;
22754;SDS011;11544;42.020;23.094;2023-04-25T02:53:58;2.30;;;2.10;;
22754;SDS011;11544;42.020;23.094;2023-04-25T02:56:25;2.05;;;1.95;;
22754;SDS011;11544;42.020;23.094;2023-04-25T02:58:53;4.35;;;2.65;;
22754;SDS011;11544;42.020;23.094;2023-04-25T03:01:20;5.57;;;2.53;;
22754;SDS011;11544;42.020;23.094;2023-04-25T03:03:47;2.55;;;2.13;;
22754;SDS011;11544;42.020;23.094;2023-04-25T03:06:14;2.58;;;2.28;;
22754;SDS011;11544;42.020;23.094;2023-04-25T03:08:42;4.22;;;3.10;;
22754;SDS011;11544;42.020;23.094;2023-04-25T03:11:09;3.28;;;2.47;;
22754;SDS011;11544;42.020;23.094;2023-04-25T03:13:36;3.67;;;2.45;;
22754;SDS011;11544;42.020;23.094;2023-04-25T03:16:03;3.58;;;2.63;;
22754;SDS011;11544;42.020;23.094;2023-04-25T03:18:31;3.40;;;2.38;;
22754;SDS011;11544;42.020;23.094;2023-04-25T03:20:58;2.17;;;1.98;;
22754;SDS011;11544;42.020;23.094;2023-04-25T03:23:25;2.60;;;2.40;;
22754;SDS011;11544;42.020;23.094;2023-04-25T03:25:52;4.80;;;3.10;;
22754;SDS011;11544;42.020;23.094;2023-04-25T03:28:19;2.78;;;2.58;;
22754;SDS011;11544;42.020;23.094;2023-04-25T03:30:46;3.13;;;2.83;;
22754;SDS011;11544;42.020;23.094;2023-04-25T03:33:13;3.60;;;2.80;;
22754;SDS011;11544;42.020;23.094;2023-04-25T03:35:40;5.47;;;2.75;;
22754;SDS011;11544;42.020;23.094;2023-04-25T03:38:07;4.63;;;2.63;;
22754;SDS011;11544;42.020;23.094;2023-04-25T03:40:37;3.05;;;2.55;;
22754;SDS011;11544;42.020;23.094;2023-04-25T03:43:07;6.80;;;2.90;;
22754;SDS011;11544;42.020;23.094;2023-04-25T03:45:34;3.20;;;2.90;;
22754;SDS011;11544;42.020;23.094;2023-04-25T03:48:01;3.03;;;2.72;;
22754;SDS011;11544;42.020;23.094;2023-04-25T03:50:28;3.33;;;2.75;;
22754;SDS011;11544;42.020;23.094;2023-04-25T03:52:54;4.25;;;3.10;;
22754;SDS011;11544;42.020;23.094;2023-04-25T03:55:21;3.80;;;3.40;;
22754;SDS011;11544;42.020;23.094;2023-04-25T03:57:48;3.83;;;3.35;;
22754;SDS011;11544;42.020;23.094;2023-04-25T04:00:15;3.75;;;3.35;;
22754;SDS011;11544;42.020;23.094;2023-04-25T04:02:42;4.78;;;3.65;;
22754;SDS011;11544;42.020;23.094;2023-04-25T04:05:11;5.03;;;3.03;;
22754;SDS011;11544;42.020;23.094;2023-04-25T04:07:38;4.03;;;3.50;;
22754;SDS011;11544;42.020;23.094;2023-04-25T04:10:06;4.32;;;3.35;;
22754;SDS011;11544;42.020;23.094;2023-04-25T04:12:33;3.88;;;3.20;;
22754;SDS011;11544;42.020;23.094;2023-04-25T04:15:01;5.60;;;3.13;;
22754;SDS011;11544;42.020;23.094;2023-04-25T04:17:30;4.43;;;3.47;;
22754;SDS011;11544;42.020;23.094;2023-04-25T04:19:57;3.92;;;3.47;;
22754;SDS011;11544;42.020;23.094;2023-04-25T04:22:24;4.70;;;3.40;;
22754;SDS011;11544;42.020;23.094;2023-04-25T04:24:51;5.00;;;3.08;;
22754;SDS011;11544;42.020;23.094;2023-04-25T04:27:19;3.65;;;3.25;;
22754;SDS011;11544;42.020;23.094;2023-04-25T04:29:47;5.88;;;3.20;;
22754;SDS011;11544;42.020;23.094;2023-04-25T04:32:15;8.90;;;3.25;;
22754;SDS011;11544;42.020;23.094;2023-04-25T04:34:42;4.80;;;4.00;;
22754;SDS011;11544;42.020;23.094;2023-04-25T04:37:09;5.95;;;3.60;;
22754;SDS011;11544;42.020;23.094;2023-04-25T04:39:36;4.97;;;3.72;;
22754;SDS011;11544;42.020;23.094;2023-04-25T04:42:03;5.93;;;3.58;;
22754;SDS011;11544;42.020;23.094;2023-04-25T04:44:31;5.63;;;3.58;;
22754;SDS011;11544;42.020;23.094;2023-04-25T04:47:01;4.90;;;3.45;;
22754;SDS011;11544;42.020;23.094;2023-04-25T04:49:32;5.65;;;3.95;;
22754;SDS011;11544;42.020;23.094;2023-04-25T04:51:59;4.50;;;3.45;;
22754;SDS011;11544;42.020;23.094;2023-04-25T04:54:27;3.78;;;3.33;;
22754;SDS011;11544;42.020;23.094;2023-04-25T04:56:54;5.05;;;3.38;;
22754;SDS011;11544;42.020;23.094;2023-04-25T04:59:21;4.57;;;3.90;;
22754;SDS011;11544;42.020;23.094;2023-04-25T05:01:47;3.58;;;3.28;;
22754;SDS011;11544;42.020;23.094;2023-04-25T05:04:14;4.15;;;3.50;;
22754;SDS011;11544;42.020;23.094;2023-04-25T05:06:44;4.10;;;3.70;;
22754;SDS011;11544;42.020;23.094;2023-04-25T05:09:14;6.07;;;4.43;;
22754;SDS011;11544;42.020;23.094;2023-04-25T05:11:41;3.47;;;3.17;;
22754;SDS011;11544;42.020;23.094;2023-04-25T05:14:08;6.32;;;3.63;;
22754;SDS011;11544;42.020;23.094;2023-04-25T05:16:35;5.28;;;3.50;;
22754;SDS011;11544;42.020;23.094;2023-04-25T05:19:02;4.22;;;3.83;;
22754;SDS011;11544;42.020;23.094;2023-04-25T05:21:29;4.07;;;3.25;;
22754;SDS011;11544;42.020;23.094;2023-04-25T05:23:57;5.32;;;4.18;;
22754;SDS011;11544;42.020;23.094;2023-04-25T05:26:24;5.38;;;3.75;;
22754;SDS011;11544;42.020;23.094;2023-04-25T05:28:51;8.02;;;4.10;;
22754;SDS011;11544;42.020;23.094;2023-04-25T05:31:18;6.00;;;4.40;;
22754;SDS011;11544;42.020;23.094;2023-04-25T05:33:45;5.03;;;4.35;;
22754;SDS011;11544;42.020;23.094;2023-04-25T05:36:12;5.38;;;4.53;;
22754;SDS011;11544;42.020;23.094;2023-04-25T05:38:39;7.10;;;5.80;;
22754;SDS011;11544;42.020;23.094;2023-04-25T05:41:06;8.07;;;5.32;;
22754;SDS011;11544;42.020;23.094;2023-04-25T05:43:33;6.25;;;4.80;;
22754;SDS011;11544;42.020;23.094;2023-04-25T05:46:00;4.15;;;3.60;;
22754;SDS011;11544;42.020;23.094;2023-04-25T05:48:27;4.05;;;3.65;;
22754;SDS011;11544;42.020;23.094;2023-04-25T05:50:54;6.70;;;4.35;;
22754;SDS011;11544;42.020;23.094;2023-04-25T05:53:21;5.40;;;4.15;;
22754;SDS011;11544;42.020;23.094;2023-04-25T05:55:48;8.75;;;4.20;;
22754;SDS011;11544;42.020;23.094;2023-04-25T05:58:15;6.15;;;3.85;;
22754;SDS011;11544;42.020;23.094;2023-04-25T06:00:42;9.65;;;4.68;;
22754;SDS011;11544;42.020;23.094;2023-04-25T06:03:27;12.27;;;6.07;;
22754;SDS011;11544;42.020;23.094;2023-04-25T06:05:54;11.70;;;6.30;;
22754;SDS011;11544;42.020;23.094;2023-04-25T06:08:22;6.47;;;4.60;;
22754;SDS011;11544;42.020;23.094;2023-04-25T06:10:50;8.70;;;4.63;;
22754;SDS011;11544;42.020;23.094;2023-04-25T06:13:17;5.60;;;3.75;;
22754;SDS011;11544;42.020;23.094;2023-04-25T06:15:44;5.20;;;3.15;;
22754;SDS011;11544;42.020;23.094;2023-04-25T06:18:11;5.00;;;3.60;;
22754;SDS011;11544;42.020;23.094;2023-04-25T06:20:38;3.58;;;2.80;;
22754;SDS011;11544;42.020;23.094;2023-04-25T06:23:05;4.57;;;3.38;;
22754;SDS011;11544;42.020;23.094;2023-04-25T06:25:32;10.18;;;3.22;;
22754;SDS011;11544;42.020;23.094;2023-04-25T06:28:02;8.90;;;4.05;;
22754;SDS011;11544;42.020;23.094;2023-04-25T06:30:32;6.35;;;2.95;;
22754;SDS011;11544;42.020;23.094;2023-04-25T06:32:59;5.85;;;3.03;;
22754;SDS011;11544;42.020;23.094;2023-04-25T06:35:26;6.68;;;3.78;;
22754;SDS011;11544;42.020;23.094;2023-04-25T06:37:53;4.25;;;3.28;;
22754;SDS011;11544;42.020;23.094;2023-04-25T06:40:21;7.45;;;3.80;;
22754;SDS011;11544;42.020;23.094;2023-04-25T06:42:48;6.45;;;4.05;;
22754;SDS011;11544;42.020;23.094;2023-04-25T06:45:15;7.15;;;4.38;;
22754;SDS011;11544;42.020;23.094;2023-04-25T06:47:42;7.43;;;4.80;;
22754;SDS011;11544;42.020;23.094;2023-04-25T06:50:09;5.05;;;4.10;;
22754;SDS011;11544;42.020;23.094;2023-04-25T06:52:39;7.22;;;3.92;;
22754;SDS011;11544;42.020;23.094;2023-04-25T06:55:06;6.05;;;4.47;;
22754;SDS011;11544;42.020;23.094;2023-04-25T06:57:33;6.43;;;4.85;;
22754;SDS011;11544;42.020;23.094;2023-04-25T07:00:00;8.98;;;5.97;;
22754;SDS011;11544;42.020;23.094;2023-04-25T07:02:27;5.63;;;4.15;;
22754;SDS011;11544;42.020;23.094;2023-04-25T07:04:55;7.53;;;5.25;;
22754;SDS011;11544;42.020;23.094;2023-04-25T07:07:26;5.85;;;4.57;;
22754;SDS011;11544;42.020;23.094;2023-04-25T07:09:53;7.60;;;4.05;;
22754;SDS011;11544;42.020;23.094;2023-04-25T07:12:21;4.47;;;3.72;;
22754;SDS011;11544;42.020;23.094;2023-04-25T07:14:48;4.50;;;3.10;;
22754;SDS011;11544;42.020;23.094;2023-04-25T07:17:15;7.75;;;2.83;;
22754;SDS011;11544;42.020;23.094;2023-04-25T07:19:42;2.25;;;1.65;;
22754;SDS011;11544;42.020;23.094;2023-04-25T07:22:10;1.38;;;1.20;;
22754;SDS011;11544;42.020;23.094;2023-04-25T07:24:36;1.50;;;1.38;;
22754;SDS011;11544;42.020;23.094;2023-04-25T07:27:03;2.15;;;1.95;;
22754;SDS011;11544;42.020;23.094;2023-04-25T07:29:30;1.52;;;1.38;;
22754;SDS011;11544;42.020;23.094;2023-04-25T07:31:58;2.35;;;1.20;;
22754;SDS011;11544;42.020;23.094;2023-04-25T07:34:25;1.45;;;1.15;;
22754;SDS011;11544;42.020;23.094;2023-04-25T07:36:55;1.92;;;1.30;;
22754;SDS011;11544;42.020;23.094;2023-04-25T07:39:25;2.42;;;1.50;;
22754;SDS011;11544;42.020;23.094;2023-04-25T07:41:52;1.23;;;1.10;;
22754;SDS011;11544;42.020;23.094;2023-04-25T07:44:20;2.97;;;1.20;;
22754;SDS011;11544;42.020;23.094;2023-04-25T07:46:49;3.08;;;1.30;;
22754;SDS011;11544;42.020;23.094;2023-04-25T07:49:16;1.60;;;1.15;;
22754;SDS011;11544;42.020;23.094;2023-04-25T07:51:43;6.40;;;1.80;;
22754;SDS011;11544;42.020;23.094;2023-04-25T07:54:12;3.33;;;1.20;;
22754;SDS011;11544;42.020;23.094;2023-04-25T07:56:40;2.05;;;1.50;;
22754;SDS011;11544;42.020;23.094;2023-04-25T07:59:18;2.00;;;1.42;;
22754;SDS011;11544;42.020;23.094;2023-04-25T08:01:45;1.88;;;1.38;;
22754;SDS011;11544;42.020;23.094;2023-04-25T08:04:27;2.42;;;1.30;;
22754;SDS011;11544;42.020;23.094;2023-04-25T08:06:55;3.15;;;1.55;;
22754;SDS011;11544;42.020;23.094;2023-04-25T08:09:22;2.58;;;1.10;;
22754;SDS011;11544;42.020;23.094;2023-04-25T08:11:49;1.05;;;0.98;;
22754;SDS011;11544;42.020;23.094;2023-04-25T08:14:17;2.88;;;1.38;;
22754;SDS011;11544;42.020;23.094;2023-04-25T08:16:44;3.90;;;1.20;;
22754;SDS011;11544;42.020;23.094;2023-04-25T08:19:11;1.38;;;1.20;;
22754;SDS011;11544;42.020;23.094;2023-04-25T08:21:51;1.05;;;0.98;;
22754;SDS011;11544;42.020;23.094;2023-04-25T08:24:24;1.17;;;1.00;;
22754;SDS011;11544;42.020;23.094;2023-04-25T08:26:51;1.60;;;1.20;;
22754;SDS011;11544;42.020;23.094;2023-04-25T08:29:25;1.90;;;0.90;;
22754;SDS011;11544;42.020;23.094;2023-04-25T08:31:54;5.82;;;1.20;;
22754;SDS011;11544;42.020;23.094;2023-04-25T08:34:22;1.65;;;1.05;;
22754;SDS011;11544;42.020;23.094;2023-04-25T08:36:49;1.13;;;1.02;;
22754;SDS011;11544;42.020;23.094;2023-04-25T08:39:16;2.70;;;1.67;;
22754;SDS011;11544;42.020;23.094;2023-04-25T08:41:44;1.98;;;1.00;;
22754;SDS011;11544;42.020;23.094;2023-04-25T08:44:11;4.07;;;1.52;;
22754;SDS011;11544;42.020;23.094;2023-04-25T08:46:41;1.30;;;1.20;;
22754;SDS011;11544;42.020;23.094;2023-04-25T08:49:22;1.83;;;0.93;;
22754;SDS011;11544;42.020;23.094;2023-04-25T08:51:50;1.73;;;1.00;;
22754;SDS011;11544;42.020;23.094;2023-04-25T08:54:19;1.27;;;0.90;;
22754;SDS011;11544;42.020;23.094;2023-04-25T08:57:02;0.80;;;0.80;;
22754;SDS011;11544;42.020;23.094;2023-04-25T08:59:35;1.95;;;0.98;;
22754;SDS011;11544;42.020;23.094;2023-04-25T09:02:04;1.17;;;0.75;;
22754;SDS011;11544;42.020;23.094;2023-04-25T09:04:31;1.10;;;0.80;;
22754;SDS011;11544;42.020;23.094;2023-04-25T09:06:58;0.70;;;0.57;;
22754;SDS011;11544;42.020;23.094;2023-04-25T09:09:25;0.50;;;0.50;;
22754;SDS011;11544;42.020;23.094;2023-04-25T09:11:53;1.90;;;0.90;;
22754;SDS011;11544;42.020;23.094;2023-04-25T09:14:22;2.00;;;0.80;;
22754;SDS011;11544;42.020;23.094;2023-04-25T09:19:52;0.88;;;0.75;;
22754;SDS011;11544;42.020;23.094;2023-04-25T09:22:19;1.63;;;0.80;;
22754;SDS011;11544;42.020;23.094;2023-04-25T09:25:08;1.42;;;0.98;;
22754;SDS011;11544;42.020;23.094;2023-04-25T09:27:36;1.63;;;0.80;;
22754;SDS011;11544;42.020;23.094;2023-04-25T09:30:17;2.53;;;1.65;;
22754;SDS011;11544;42.020;23.094;2023-04-25T09:32:44;1.55;;;0.95;;
22754;SDS011;11544;42.020;23.094;2023-04-25T09:35:23;1.83;;;1.20;;
22754;SDS011;11544;42.020;23.094;2023-04-25T09:37:56;3.83;;;1.15;;
22754;SDS011;11544;42.020;23.094;2023-04-25T09:40:23;0.80;;;0.57;;
22754;SDS011;11544;42.020;23.094;2023-04-25T09:42:50;1.17;;;0.70;;
22754;SDS011;11544;42.020;23.094;2023-04-25T09:45:17;0.85;;;0.60;;
22754;SDS011;11544;42.020;23.094;2023-04-25T09:47:44;0.70;;;0.63;;
22754;SDS011;11544;42.020;23.094;2023-04-25T09:50:16;1.25;;;0.80;;
22754;SDS011;11544;42.020;23.094;2023-04-25T09:52:45;1.52;;;0.60;;
22754;SDS011;11544;42.020;23.094;2023-04-25T09:55:31;2.67;;;0.90;;
22754;SDS011;11544;42.020;23.094;2023-04-25T09:58:03;1.33;;;0.70;;
22754;SDS011;11544;42.020;23.094;2023-04-25T10:00:32;1.95;;;0.70;;
22754;SDS011;11544;42.020;23.094;2023-04-25T10:03:06;2.00;;;0.95;;
22754;SDS011;11544;42.020;23.094;2023-04-25T10:05:34;0.52;;;0.50;;
22754;SDS011;11544;42.020;23.094;2023-04-25T10:08:02;1.02;;;0.70;;
22754;SDS011;11544;42.020;23.094;2023-04-25T10:10:33;2.70;;;1.10;;
22754;SDS011;11544;42.020;23.094;2023-04-25T10:13:03;2.75;;;0.82;;
22754;SDS011;11544;42.020;23.094;2023-04-25T10:15:33;2.95;;;0.60;;
22754;SDS011;11544;42.020;23.094;2023-04-25T10:18:05;0.77;;;0.60;;
22754;SDS011;11544;42.020;23.094;2023-04-25T10:20:33;1.63;;;0.73;;
22754;SDS011;11544;42.020;23.094;2023-04-25T10:23:07;2.90;;;0.90;;
22754;SDS011;11544;42.020;23.094;2023-04-25T10:25:39;0.90;;;0.35;;
22754;SDS011;11544;42.020;23.094;2023-04-25T10:28:07;0.93;;;0.80;;
22754;SDS011;11544;42.020;23.094;2023-04-25T10:30:34;5.85;;;0.70;;
22754;SDS011;11544;42.020;23.094;2023-04-25T10:33:02;1.52;;;0.80;;
22754;SDS011;11544;42.020;23.094;2023-04-25T10:35:44;0.65;;;0.60;;
22754;SDS011;11544;42.020;23.094;2023-04-25T10:38:13;1.38;;;0.70;;
22754;SDS011;11544;42.020;23.094;2023-04-25T10:40:41;1.30;;;0.70;;
22754;SDS011;11544;42.020;23.094;2023-04-25T10:46:23;0.95;;;0.63;;
22754;SDS011;11544;42.020;23.094;2023-04-25T10:48:52;2.03;;;0.85;;
22754;SDS011;11544;42.020;23.094;2023-04-25T10:51:23;1.35;;;0.88;;
22754;SDS011;11544;42.020;23.094;2023-04-25T10:54:03;1.48;;;0.45;;
22754;SDS011;11544;42.020;23.094;2023-04-25T10:56:32;0.77;;;0.50;;
22754;SDS011;11544;42.020;23.094;2023-04-25T11:01:37;5.90;;;3.53;;
22754;SDS011;11544;42.020;23.094;2023-04-25T11:04:05;1.65;;;0.60;;
22754;SDS011;11544;42.020;23.094;2023-04-25T11:06:51;0.60;;;0.50;;
22754;SDS011;11544;42.020;23.094;2023-04-25T11:09:32;0.90;;;0.90;;
22754;SDS011;11544;42.020;23.094;2023-04-25T11:12:00;3.67;;;0.30;;
22754;SDS011;11544;42.020;23.094;2023-04-25T11:14:27;0.75;;;0.52;;
22754;SDS011;11544;42.020;23.094;2023-04-25T11:16:54;0.77;;;0.68;;
22754;SDS011;11544;42.020;23.094;2023-04-25T11:19:26;1.00;;;0.43;;
22754;SDS011;11544;42.020;23.094;2023-04-25T11:21:57;0.95;;;0.60;;
22754;SDS011;11544;42.020;23.094;2023-04-25T11:24:27;1.48;;;0.50;;
22754;SDS011;11544;42.020;23.094;2023-04-25T11:26:57;0.73;;;0.45;;
22754;SDS011;11544;42.020;23.094;2023-04-25T11:29:34;1.05;;;0.57;;
22754;SDS011;11544;42.020;23.094;2023-04-25T11:32:01;0.73;;;0.65;;
22754;SDS011;11544;42.020;23.094;2023-04-25T11:34:46;1.25;;;0.40;;
22754;SDS011;11544;42.020;23.094;2023-04-25T11:37:13;1.13;;;0.70;;
22754;SDS011;11544;42.020;23.094;2023-04-25T11:39:44;0.93;;;0.40;;
22754;SDS011;11544;42.020;23.094;2023-04-25T11:42:12;0.65;;;0.65;;
22754;SDS011;11544;42.020;23.094;2023-04-25T11:44:42;0.40;;;0.40;;
22754;SDS011;11544;42.020;23.094;2023-04-25T11:47:09;1.33;;;0.32;;
22754;SDS011;11544;42.020;23.094;2023-04-25T11:49:36;0.73;;;0.50;;
22754;SDS011;11544;42.020;23.094;2023-04-25T11:52:05;1.83;;;0.30;;
22754;SDS011;11544;42.020;23.094;2023-04-25T11:54:37;1.08;;;0.40;;
22754;SDS011;11544;42.020;23.094;2023-04-25T11:57:06;1.15;;;0.55;;
22754;SDS011;11544;42.020;23.094;2023-04-25T11:59:36;0.55;;;0.45;;
22754;SDS011;11544;42.020;23.094;2023-04-25T12:02:06;1.23;;;0.60;;
22754;SDS011;11544;42.020;23.094;2023-04-25T12:04:33;3.10;;;0.65;;
22754;SDS011;11544;42.020;23.094;2023-04-25T12:07:00;0.98;;;0.43;;
22754;SDS011;11544;42.020;23.094;2023-04-25T12:09:31;5.00;;;1.08;;
22754;SDS011;11544;42.020;23.094;2023-04-25T12:12:00;0.38;;;0.38;;
22754;SDS011;11544;42.020;23.094;2023-04-25T12:14:31;0.75;;;0.50;;
22754;SDS011;11544;42.020;23.094;2023-04-25T12:17:00;1.30;;;0.55;;
22754;SDS011;11544;42.020;23.094;2023-04-25T12:19:32;2.15;;;0.63;;
22754;SDS011;11544;42.020;23.094;2023-04-25T12:22:01;0.40;;;0.40;;
22754;SDS011;11544;42.020;23.094;2023-04-25T12:24:33;0.82;;;0.50;;
22754;SDS011;11544;42.020;23.094;2023-04-25T12:27:05;0.63;;;0.63;;
22754;SDS011;11544;42.020;23.094;2023-04-25T12:29:35;2.58;;;0.65;;
22754;SDS011;11544;42.020;23.094;2023-04-25T12:32:05;1.05;;;0.40;;
22754;SDS011;11544;42.020;23.094;2023-04-25T12:34:32;0.57;;;0.47;;
22754;SDS011;11544;42.020;23.094;2023-04-25T12:37:01;2.85;;;0.65;;
22754;SDS011;11544;42.020;23.094;2023-04-25T12:39:28;1.17;;;0.60;;
22754;SDS011;11544;42.020;23.094;2023-04-25T12:41:55;1.75;;;0.40;;
22754;SDS011;11544;42.020;23.094;2023-04-25T12:44:22;0.70;;;0.43;;
22754;SDS011;11544;42.020;23.094;2023-04-25T12:46:49;2.58;;;0.80;;
22754;SDS011;11544;42.020;23.094;2023-04-25T12:49:16;0.80;;;0.55;;
22754;SDS011;11544;42.020;23.094;2023-04-25T12:51:44;2.17;;;0.63;;
22754;SDS011;11544;42.020;23.094;2023-04-25T12:54:11;1.85;;;0.75;;
22754;SDS011;11544;42.020;23.094;2023-04-25T12:56:38;1.88;;;0.60;;
22754;SDS011;11544;42.020;23.094;2023-04-25T12:59:13;2.70;;;0.80;;
22754;SDS011;11544;42.020;23.094;2023-04-25T13:01:40;1.83;;;0.70;;
22754;SDS011;11544;42.020;23.094;2023-04-25T13:04:07;2.40;;;0.73;;
22754;SDS011;11544;42.020;23.094;2023-04-25T13:06:35;2.05;;;0.65;;
22754;SDS011;11544;42.020;23.094;2023-04-25T13:09:03;0.90;;;0.70;;
22754;SDS011;11544;42.020;23.094;2023-04-25T13:11:31;0.60;;;0.60;;
22754;SDS011;11544;42.020;23.094;2023-04-25T13:14:02;1.67;;;0.90;;
22754;SDS011;11544;42.020;23.094;2023-04-25T13:16:32;0.90;;;0.88;;
22754;SDS011;11544;42.020;23.094;2023-04-25T13:18:59;1.10;;;0.70;;
22754;SDS011;11544;42.020;23.094;2023-04-25T13:21:26;0.93;;;0.70;;
22754;SDS011;11544;42.020;23.094;2023-04-25T13:23:55;1.10;;;0.82;;
22754;SDS011;11544;42.020;23.094;2023-04-25T13:26:22;1.85;;;1.10;;
22754;SDS011;11544;42.020;23.094;2023-04-25T13:28:49;1.50;;;1.20;;
22754;SDS011;11544;42.020;23.094;2023-04-25T13:31:16;1.27;;;1.17;;
22754;SDS011;11544;42.020;23.094;2023-04-25T13:33:43;1.70;;;1.48;;
22754;SDS011;11544;42.020;23.094;2023-04-25T13:36:13;1.35;;;1.25;;
22754;SDS011;11544;42.020;23.094;2023-04-25T13:38:40;1.00;;;0.90;;
22754;SDS011;11544;42.020;23.094;2023-04-25T13:41:16;3.45;;;0.90;;
22754;SDS011;11544;42.020;23.094;2023-04-25T13:43:46;3.03;;;1.20;;
22754;SDS011;11544;42.020;23.094;2023-04-25T13:46:18;1.25;;;1.00;;
22754;SDS011;11544;42.020;23.094;2023-04-25T13:49:05;1.77;;;1.45;;
22754;SDS011;11544;42.020;23.094;2023-04-25T13:51:38;2.20;;;0.90;;
22754;SDS011;11544;42.020;23.094;2023-04-25T13:54:05;1.27;;;0.88;;
22754;SDS011;11544;42.020;23.094;2023-04-25T13:56:31;0.85;;;0.77;;
22754;SDS011;11544;42.020;23.094;2023-04-25T13:58:58;1.98;;;0.88;;
22754;SDS011;11544;42.020;23.094;2023-04-25T14:01:25;2.25;;;0.70;;
22754;SDS011;11544;42.020;23.094;2023-04-25T14:03:54;1.15;;;0.80;;
22754;SDS011;11544;42.020;23.094;2023-04-25T14:06:21;0.75;;;0.75;;
22754;SDS011;11544;42.020;23.094;2023-04-25T14:08:50;1.42;;;1.02;;
22754;SDS011;11544;42.020;23.094;2023-04-25T14:11:18;1.83;;;0.93;;
22754;SDS011;11544;42.020;23.094;2023-04-25T14:13:45;2.22;;;1.40;;
22754;SDS011;11544;42.020;23.094;2023-04-25T14:16:12;0.95;;;0.52;;
22754;SDS011;11544;42.020;23.094;2023-04-25T14:18:39;1.13;;;0.70;;
22754;SDS011;11544;42.020;23.094;2023-04-25T14:21:06;1.65;;;0.60;;
22754;SDS011;11544;42.020;23.094;2023-04-25T14:23:33;1.63;;;1.15;;
22754;SDS011;11544;42.020;23.094;2023-04-25T14:26:00;3.38;;;1.92;;
22754;SDS011;11544;42.020;23.094;2023-04-25T14:28:27;3.63;;;1.58;;
22754;SDS011;11544;42.020;23.094;2023-04-25T14:30:54;3.35;;;2.35;;
22754;SDS011;11544;42.020;23.094;2023-04-25T14:33:21;1.77;;;1.60;;
22754;SDS011;11544;42.020;23.094;2023-04-25T14:35:48;0.95;;;0.88;;
22754;SDS011;11544;42.020;23.094;2023-04-25T14:38:19;2.20;;;1.17;;
22754;SDS011;11544;42.020;23.094;2023-04-25T14:40:52;1.02;;;0.93;;
22754;SDS011;11544;42.020;23.094;2023-04-25T14:43:20;7.15;;;1.17;;
22754;SDS011;11544;42.020;23.094;2023-04-25T14:45:50;1.05;;;0.93;;
22754;SDS011;11544;42.020;23.094;2023-04-25T14:48:17;3.03;;;1.40;;
22754;SDS011;11544;42.020;23.094;2023-04-25T14:50:46;3.67;;;1.70;;
22754;SDS011;11544;42.020;23.094;2023-04-25T14:53:18;6.40;;;1.77;;